Time;durP1;ratioP1;P1;durP2;ratioP2;P2;SDS_P1;SDS_P2;PMS_P1;PMS_P2;Temp;Humidity;BMP_temperature;BMP_pressure;BME280_temperature;BME280_humidity;BME280_pressure;Samples;Min_cycle;Max_cycle;Signal;HPM_P1;HPM_P2
2021/05/24 00:00:55;;;;;;;0.00;0.00;;;15.70;55.70;;;;;;4974263;28;20041;-80
2021/05/24 00:03:21;;;;;;;0.00;0.00;;;15.70;55.80;;;;;;4988542;28;20049;-80
2021/05/24 00:05:47;;;;;;;0.00;0.00;;;15.70;55.90;;;;;;4973473;28;20499;-80
2021/05/24 00:08:13;;;;;;;0.28;0.00;;;15.70;55.90;;;;;;4972446;28;20041;-80
2021/05/24 00:10:40;;;;;;;0.10;0.00;;;15.70;56.60;;;;;;4972260;28;20392;-80
2021/05/24 00:13:08;;;;;;;0.00;0.00;;;15.70;56.10;;;;;;4972600;28;20031;-80
2021/05/24 00:15:42;;;;;;;0.00;0.00;;;15.70;56.20;;;;;;4972586;28;20404;-80
2021/05/24 00:18:08;;;;;;;0.20;0.00;;;15.60;56.30;;;;;;4971968;28;20034;-80
2021/05/24 00:20:36;;;;;;;5.18;0.45;;;15.60;56.40;;;;;;4971366;28;20026;-80
2021/05/24 00:23:03;;;;;;;0.00;0.00;;;15.60;56.50;;;;;;4988346;28;20039;-80
2021/05/24 00:25:29;;;;;;;0.17;0.00;;;15.60;56.50;;;;;;4972801;28;20042;-80
2021/05/24 00:27:55;;;;;;;0.00;0.00;;;15.50;56.60;;;;;;4972092;28;20408;-80
2021/05/24 00:30:22;;;;;;;3.00;0.75;;;15.50;56.80;;;;;;4975450;28;20499;-81
2021/05/24 00:32:48;;;;;;;1.85;0.10;;;15.50;56.90;;;;;;4962324;28;20038;-81
2021/05/24 00:35:14;;;;;;;0.00;0.00;;;15.40;56.90;;;;;;4958793;28;20038;-80
2021/05/24 00:37:40;;;;;;;0.82;0.20;;;15.40;57.70;;;;;;4975345;28;20033;-81
2021/05/24 00:40:08;;;;;;;0.00;0.00;;;15.40;57.20;;;;;;4973893;28;20035;-80
2021/05/24 00:42:34;;;;;;;0.73;0.03;;;15.40;57.20;;;;;;4977562;28;20508;-80
2021/05/24 00:45:01;;;;;;;2.47;0.10;;;15.30;57.30;;;;;;4977304;28;20061;-81
2021/05/24 00:47:27;;;;;;;3.60;0.10;;;15.30;57.60;;;;;;4970690;28;20062;-81
2021/05/24 00:49:53;;;;;;;1.20;0.00;;;15.20;57.70;;;;;;4973102;28;20030;-81
2021/05/24 00:52:19;;;;;;;3.20;0.10;;;15.20;57.80;;;;;;4972317;28;20042;-81
2021/05/24 00:54:45;;;;;;;0.13;0.00;;;15.20;57.90;;;;;;4973503;28;20031;-81
2021/05/24 00:57:11;;;;;;;4.28;0.10;;;15.10;58.20;;;;;;4971994;28;20034;-81
2021/05/24 00:59:37;;;;;;;0.10;0.00;;;15.10;58.30;;;;;;4971313;28;20027;-81
2021/05/24 01:02:04;;;;;;;0.00;0.00;;;15.10;58.40;;;;;;4969319;28;20069;-80
2021/05/24 01:04:30;;;;;;;0.00;0.00;;;15.00;58.60;;;;;;4971846;28;20042;-81
2021/05/24 01:06:56;;;;;;;0.00;0.00;;;15.00;58.60;;;;;;4971642;28;20506;-81
2021/05/24 01:09:22;;;;;;;0.00;0.00;;;15.00;58.70;;;;;;4987081;28;20031;-80
2021/05/24 01:11:49;;;;;;;0.00;0.00;;;14.90;58.90;;;;;;4972414;28;20031;-80
2021/05/24 01:14:15;;;;;;;13.23;0.15;;;14.90;59.10;;;;;;4971280;28;20042;-81
2021/05/24 01:16:43;;;;;;;0.00;0.00;;;14.80;59.20;;;;;;4976998;28;20038;-80
2021/05/24 01:19:09;;;;;;;4.85;0.10;;;14.80;59.30;;;;;;4971578;28;20043;-81
2021/05/24 01:21:35;;;;;;;0.05;0.00;;;14.80;59.50;;;;;;4973249;28;20035;-80
2021/05/24 01:24:01;;;;;;;2.60;0.20;;;14.70;59.50;;;;;;4971480;28;20533;-81
2021/05/24 01:26:27;;;;;;;0.32;0.03;;;14.70;59.70;;;;;;4987487;28;20050;-81
2021/05/24 01:28:54;;;;;;;1.55;0.00;;;14.70;59.90;;;;;;4975634;28;20050;-80
2021/05/24 01:31:20;;;;;;;0.10;0.00;;;14.70;59.90;;;;;;4970385;28;20050;-81
2021/05/24 01:33:46;;;;;;;0.13;0.08;;;14.70;60.10;;;;;;4971831;28;20035;-81
2021/05/24 01:36:12;;;;;;;1.27;0.10;;;14.60;60.10;;;;;;4971154;28;20411;-81
2021/05/24 01:38:40;;;;;;;0.10;0.00;;;14.60;60.40;;;;;;4971322;28;20035;-81
2021/05/24 01:41:10;;;;;;;0.00;0.00;;;14.60;60.40;;;;;;4971108;28;20055;-81
2021/05/24 01:43:36;;;;;;;0.52;0.22;;;14.60;60.60;;;;;;4971415;28;20035;-81
2021/05/24 01:46:03;;;;;;;0.08;0.00;;;14.60;60.90;;;;;;4977064;28;20050;-81
2021/05/24 01:48:29;;;;;;;1.13;0.00;;;14.50;61.10;;;;;;5006540;28;20027;-81
2021/05/24 01:50:55;;;;;;;0.05;0.00;;;14.50;61.20;;;;;;5007931;28;20500;-81
2021/05/24 01:53:21;;;;;;;0.00;0.00;;;14.40;62.10;;;;;;4982305;28;20030;-82
2021/05/24 01:55:47;;;;;;;0.10;0.00;;;14.40;61.60;;;;;;4991543;28;20038;-81
2021/05/24 01:58:14;;;;;;;2.30;0.20;;;14.30;62.50;;;;;;4960697;28;20046;-81
2021/05/24 02:00:40;;;;;;;0.10;0.00;;;14.30;61.80;;;;;;4994793;28;20412;-81
2021/05/24 02:03:09;;;;;;;0.20;0.00;;;14.20;61.80;;;;;;4970210;28;20621;-81
2021/05/24 02:05:35;;;;;;;0.20;0.10;;;14.20;61.90;;;;;;4964052;28;20037;-81
2021/05/24 02:08:02;;;;;;;0.00;0.00;;;14.20;62.00;;;;;;4972185;28;20035;-81
2021/05/24 02:10:30;;;;;;;0.80;0.20;;;14.20;62.00;;;;;;4969690;28;20035;-81
2021/05/24 02:12:56;;;;;;;0.00;0.00;;;14.20;62.10;;;;;;4988934;28;20034;-81
2021/05/24 02:15:24;;;;;;;0.00;0.00;;;14.20;62.00;;;;;;4986776;28;20051;-81
2021/05/24 02:17:50;;;;;;;1.10;0.63;;;14.20;62.10;;;;;;4988297;28;20472;-82
2021/05/24 02:20:19;;;;;;;0.00;0.00;;;14.20;62.00;;;;;;4985780;28;20053;-82
2021/05/24 02:22:45;;;;;;;0.10;0.00;;;14.20;62.10;;;;;;4971729;28;20042;-81
2021/05/24 02:25:11;;;;;;;0.00;0.00;;;14.20;62.20;;;;;;4986748;28;20033;-81
2021/05/24 02:27:38;;;;;;;0.10;0.10;;;14.20;62.30;;;;;;4988540;28;20035;-81
2021/05/24 02:30:05;;;;;;;0.00;0.00;;;14.20;62.30;;;;;;4988080;28;20038;-81
2021/05/24 02:32:31;;;;;;;0.22;0.03;;;14.20;62.40;;;;;;4955938;28;20374;-81
2021/05/24 02:34:58;;;;;;;0.38;0.00;;;14.20;62.50;;;;;;4971873;28;20038;-81
2021/05/24 02:37:24;;;;;;;0.35;0.20;;;14.20;62.50;;;;;;4974743;28;20047;-81
2021/05/24 02:39:51;;;;;;;0.32;0.00;;;14.10;62.60;;;;;;4958041;28;20058;-81
2021/05/24 02:42:17;;;;;;;1.30;0.05;;;14.10;62.60;;;;;;4987991;28;20039;-82
2021/05/24 02:44:43;;;;;;;0.00;0.00;;;14.10;62.80;;;;;;4989410;28;20050;-81
2021/05/24 02:47:09;;;;;;;0.00;0.00;;;14.10;62.80;;;;;;4973165;28;20053;-81
2021/05/24 02:49:36;;;;;;;0.00;0.00;;;14.10;63.60;;;;;;4973777;28;20022;-81
2021/05/24 02:52:03;;;;;;;0.63;0.10;;;14.00;62.90;;;;;;4973656;28;20383;-81
2021/05/24 02:54:29;;;;;;;1.77;0.10;;;14.00;63.00;;;;;;4988318;28;20042;-81
2021/05/24 02:56:56;;;;;;;0.30;0.10;;;14.00;63.10;;;;;;4973681;28;20392;-81
2021/05/24 02:59:22;;;;;;;0.00;0.00;;;14.00;63.10;;;;;;4972707;28;20384;-82
2021/05/24 03:01:48;;;;;;;0.77;0.20;;;14.00;63.20;;;;;;4979983;28;20038;-82
2021/05/24 03:04:15;;;;;;;0.50;0.32;;;14.00;63.20;;;;;;4971727;28;20061;-81
2021/05/24 03:06:41;;;;;;;0.20;0.10;;;14.00;63.30;;;;;;5010679;28;20580;-81
2021/05/24 03:09:07;;;;;;;0.20;0.10;;;13.90;63.30;;;;;;4995913;28;20035;-81
2021/05/24 03:11:33;;;;;;;0.00;0.00;;;13.90;63.40;;;;;;4980683;28;20035;-82
2021/05/24 03:13:59;;;;;;;0.10;0.00;;;13.90;63.50;;;;;;4974306;28;20034;-81
2021/05/24 03:16:25;;;;;;;0.00;0.00;;;13.90;63.50;;;;;;4989738;28;20412;-81
2021/05/24 03:18:51;;;;;;;0.00;0.00;;;13.90;63.60;;;;;;4984894;28;20050;-81
2021/05/24 03:21:17;;;;;;;0.00;0.00;;;13.90;63.60;;;;;;4979054;28;20045;-81
2021/05/24 03:23:43;;;;;;;0.70;0.13;;;13.80;63.60;;;;;;4978561;28;20487;-82
2021/05/24 03:26:10;;;;;;;3.15;0.00;;;13.80;63.70;;;;;;4978904;28;20041;-81
2021/05/24 03:28:36;;;;;;;0.63;0.00;;;13.80;63.70;;;;;;4976276;28;20097;-82
2021/05/24 03:31:02;;;;;;;0.90;0.00;;;13.80;63.80;;;;;;4975743;28;20039;-81
2021/05/24 03:33:28;;;;;;;0.40;0.05;;;13.80;63.90;;;;;;4974445;28;20031;-81
2021/05/24 03:35:54;;;;;;;0.10;0.00;;;13.80;63.90;;;;;;4974444;28;20428;-81
2021/05/24 03:38:20;;;;;;;0.10;0.00;;;13.80;64.00;;;;;;4973551;28;20047;-81
2021/05/24 03:40:46;;;;;;;0.10;0.00;;;13.70;64.00;;;;;;4973522;28;20391;-81
2021/05/24 03:43:12;;;;;;;1.00;0.10;;;13.70;64.10;;;;;;4973608;28;20053;-82
2021/05/24 03:45:39;;;;;;;4.15;0.20;;;13.70;64.20;;;;;;4978743;28;20038;-82
2021/05/24 03:48:06;;;;;;;0.00;0.00;;;13.70;64.20;;;;;;4987099;28;20051;-81
2021/05/24 03:50:32;;;;;;;0.65;0.00;;;13.70;64.20;;;;;;4988496;28;20487;-81
2021/05/24 03:52:59;;;;;;;0.70;0.00;;;13.70;64.30;;;;;;4987960;28;20357;-81
2021/05/24 03:55:25;;;;;;;0.68;0.08;;;13.70;64.30;;;;;;4987867;28;20057;-81
2021/05/24 03:57:53;;;;;;;0.43;0.10;;;13.70;64.40;;;;;;4977257;28;20026;-82
2021/05/24 04:00:20;;;;;;;0.00;0.00;;;13.70;64.40;;;;;;5008802;28;20038;-81
2021/05/24 04:02:46;;;;;;;0.10;0.03;;;13.70;64.40;;;;;;4970862;28;20145;-81
2021/05/24 04:05:27;;;;;;;0.00;0.00;;;13.70;64.40;;;;;;5003532;28;20034;-82
2021/05/24 04:07:55;;;;;;;0.00;0.00;;;13.70;64.50;;;;;;5002516;28;20042;-84
2021/05/24 04:10:24;;;;;;;0.38;0.20;;;13.70;64.50;;;;;;4957147;28;20028;-84
2021/05/24 04:12:50;;;;;;;0.00;0.00;;;13.70;64.50;;;;;;4972204;28;20034;-86
2021/05/24 04:15:17;;;;;;;0.10;0.00;;;13.70;64.60;;;;;;4955879;28;20054;-86
2021/05/24 04:17:45;;;;;;;0.00;0.00;;;13.60;64.60;;;;;;4955039;28;20045;-85
2021/05/24 04:20:12;;;;;;;0.55;0.10;;;13.60;64.60;;;;;;4971727;28;20482;-86
2021/05/24 04:22:39;;;;;;;0.10;0.00;;;13.60;64.70;;;;;;4954614;28;20130;-89
2021/05/24 04:25:07;;;;;;;0.00;0.00;;;13.60;64.90;;;;;;4972191;28;20035;-84
2021/05/24 04:27:33;;;;;;;0.00;0.00;;;13.50;64.90;;;;;;4980861;28;20031;-87
2021/05/24 04:29:59;;;;;;;0.65;0.00;;;13.50;65.00;;;;;;4971141;28;20046;-87
2021/05/24 04:32:25;;;;;;;0.00;0.00;;;13.50;65.00;;;;;;4954396;28;20480;-86
2021/05/24 04:34:51;;;;;;;0.00;0.00;;;13.50;65.10;;;;;;4971251;28;20396;-86
2021/05/24 04:37:18;;;;;;;0.65;0.28;;;13.50;65.10;;;;;;4971961;28;20027;-87
2021/05/24 04:39:45;;;;;;;0.10;0.00;;;13.50;65.20;;;;;;4972456;28;20391;-87
2021/05/24 04:42:12;;;;;;;0.00;0.00;;;13.50;65.10;;;;;;4971249;28;20059;-84
2021/05/24 04:44:38;;;;;;;0.00;0.00;;;13.50;65.20;;;;;;4971722;28;20051;-85
2021/05/24 04:47:04;;;;;;;0.08;0.00;;;13.50;65.30;;;;;;4954089;28;20045;-87
2021/05/24 04:49:31;;;;;;;4.10;0.10;;;13.50;65.30;;;;;;4971394;28;20030;-86
2021/05/24 04:52:00;;;;;;;0.00;0.00;;;13.40;65.20;;;;;;4971879;28;20031;-85
2021/05/24 04:54:27;;;;;;;0.43;0.08;;;13.50;65.30;;;;;;4971573;28;20027;-86
2021/05/24 04:56:53;;;;;;;0.00;0.00;;;13.50;65.30;;;;;;4971184;28;20031;-85
2021/05/24 04:59:19;;;;;;;0.47;0.10;;;13.50;65.40;;;;;;4971684;28;20499;-85
2021/05/24 05:01:47;;;;;;;0.03;0.00;;;13.50;65.40;;;;;;4978161;28;20039;-87
2021/05/24 05:04:15;;;;;;;0.17;0.00;;;13.50;65.40;;;;;;4958877;28;20046;-86
2021/05/24 05:06:41;;;;;;;0.00;0.00;;;13.40;65.40;;;;;;4992289;28;20031;-85
2021/05/24 05:09:07;;;;;;;0.90;0.10;;;13.40;65.40;;;;;;4975578;28;20046;-86
2021/05/24 05:11:33;;;;;;;1.50;0.05;;;13.40;65.40;;;;;;4975761;28;20023;-88
2021/05/24 05:13:59;;;;;;;0.00;0.00;;;13.40;65.50;;;;;;4972167;28;20309;-86
2021/05/24 05:16:26;;;;;;;0.30;0.00;;;13.40;65.60;;;;;;4987247;28;20408;-85
2021/05/24 05:18:52;;;;;;;0.10;0.00;;;13.40;65.60;;;;;;4975829;28;20203;-87
2021/05/24 05:21:18;;;;;;;0.30;0.10;;;13.40;65.60;;;;;;4977269;28;20026;-85
2021/05/24 05:23:44;;;;;;;1.45;0.20;;;13.40;66.40;;;;;;4976688;28;20044;-87
2021/05/24 05:26:11;;;;;;;0.10;0.00;;;13.40;65.60;;;;;;4974619;28;20035;-89
2021/05/24 05:28:37;;;;;;;0.00;0.00;;;13.40;65.60;;;;;;4978245;28;20038;-87
2021/05/24 05:31:03;;;;;;;0.00;0.00;;;13.40;65.60;;;;;;4976608;28;20026;-89
2021/05/24 05:33:29;;;;;;;0.00;0.00;;;13.50;65.60;;;;;;4976768;28;20038;-87
2021/05/24 05:35:57;;;;;;;0.00;0.00;;;13.50;65.60;;;;;;4975283;28;20031;-88
2021/05/24 05:38:23;;;;;;;0.00;0.00;;;13.70;65.50;;;;;;4974602;28;20027;-89
2021/05/24 05:40:51;;;;;;;0.10;0.00;;;13.70;65.30;;;;;;4974519;28;20047;-85
2021/05/24 05:43:18;;;;;;;0.32;0.10;;;13.70;65.30;;;;;;4970881;28;20047;-85
2021/05/24 05:45:45;;;;;;;0.00;0.00;;;13.70;65.30;;;;;;4991057;28;20057;-86
2021/05/24 05:48:11;;;;;;;0.20;0.00;;;13.80;65.40;;;;;;4958226;28;20039;-86
2021/05/24 05:50:37;;;;;;;0.00;0.00;;;13.90;65.40;;;;;;4957973;28;20035;-85
2021/05/24 05:53:03;;;;;;;0.00;0.00;;;14.00;65.30;;;;;;4974175;28;20041;-88
2021/05/24 05:55:29;;;;;;;0.00;0.00;;;14.10;65.10;;;;;;4975617;28;20029;-87
2021/05/24 05:57:55;;;;;;;0.00;0.00;;;14.20;64.90;;;;;;4958391;28;20039;-87
2021/05/24 06:00:22;;;;;;;0.88;0.10;;;14.40;64.70;;;;;;4955198;28;20043;-84
2021/05/24 06:02:48;;;;;;;0.08;0.08;;;14.60;64.50;;;;;;4974431;28;20043;-82
2021/05/24 06:05:15;;;;;;;0.00;0.00;;;14.70;64.20;;;;;;4974579;28;20023;-83
2021/05/24 06:07:41;;;;;;;2.00;0.17;;;15.00;64.00;;;;;;4972909;28;20042;-81
2021/05/24 06:10:11;;;;;;;0.00;0.00;;;15.10;63.70;;;;;;4974344;28;20415;-80
2021/05/24 06:12:38;;;;;;;0.00;0.00;;;15.30;63.50;;;;;;4975117;28;20030;-80
2021/05/24 06:15:05;;;;;;;0.98;0.10;;;15.30;63.40;;;;;;4975373;28;20039;-82
2021/05/24 06:17:31;;;;;;;0.00;0.00;;;15.30;63.60;;;;;;4957060;28;20038;-82
2021/05/24 06:19:57;;;;;;;0.05;0.05;;;15.20;63.70;;;;;;4974827;28;20035;-83
2021/05/24 06:22:23;;;;;;;0.50;0.10;;;15.20;64.00;;;;;;4975704;28;20026;-86
2021/05/24 06:24:50;;;;;;;0.32;0.25;;;15.10;64.20;;;;;;4974592;28;20506;-84
2021/05/24 06:27:16;;;;;;;0.10;0.00;;;15.00;64.50;;;;;;4989628;28;20370;-83
2021/05/24 06:29:42;;;;;;;0.32;0.10;;;15.00;64.50;;;;;;4973281;28;20038;-82
2021/05/24 06:32:08;;;;;;;0.47;0.10;;;15.00;64.60;;;;;;4973623;28;20035;-87
2021/05/24 06:34:34;;;;;;;0.63;0.35;;;15.00;64.70;;;;;;4974587;28;20030;-83
2021/05/24 06:37:00;;;;;;;0.10;0.10;;;14.90;64.70;;;;;;4975225;28;20388;-84
2021/05/24 06:39:26;;;;;;;0.70;0.05;;;14.90;64.90;;;;;;4974986;28;20031;-85
2021/05/24 06:41:52;;;;;;;0.77;0.15;;;14.80;65.10;;;;;;4956771;28;20046;-82
2021/05/24 06:44:19;;;;;;;0.43;0.10;;;14.70;65.30;;;;;;4973827;28;20046;-85
2021/05/24 06:46:45;;;;;;;0.17;0.00;;;14.70;65.50;;;;;;4983156;28;20037;-86
2021/05/24 06:49:11;;;;;;;0.98;0.10;;;14.60;65.60;;;;;;5007214;28;20492;-82
2021/05/24 06:51:37;;;;;;;0.25;0.00;;;14.50;65.60;;;;;;4994839;28;20031;-88
2021/05/24 06:54:03;;;;;;;1.10;0.20;;;14.50;65.80;;;;;;4979833;28;20034;-88
2021/05/24 06:56:29;;;;;;;0.00;0.00;;;14.50;65.80;;;;;;4979583;28;20022;-88
2021/05/24 06:58:55;;;;;;;0.00;0.00;;;14.50;65.80;;;;;;4979829;28;20399;-88
2021/05/24 07:01:21;;;;;;;5.72;0.13;;;14.50;65.80;;;;;;4973845;28;20031;-87
2021/05/24 07:03:47;;;;;;;0.00;0.00;;;14.60;65.80;;;;;;4974932;28;20031;-87
2021/05/24 07:06:14;;;;;;;2.28;0.15;;;14.50;65.70;;;;;;4973916;28;20404;-88
2021/05/24 07:08:40;;;;;;;0.95;0.68;;;14.60;65.70;;;;;;4973988;28;20046;-87
2021/05/24 07:11:06;;;;;;;0.20;0.20;;;14.60;65.60;;;;;;4974126;28;20030;-88
2021/05/24 07:13:32;;;;;;;0.00;0.00;;;14.60;65.60;;;;;;4975235;28;20056;-88
2021/05/24 07:15:58;;;;;;;0.10;0.00;;;14.70;65.50;;;;;;4981355;28;20053;-88
2021/05/24 07:18:24;;;;;;;0.00;0.00;;;14.70;65.40;;;;;;4994942;28;20034;-87
2021/05/24 07:20:50;;;;;;;0.00;0.00;;;14.80;66.10;;;;;;5010435;28;20499;-87
2021/05/24 07:23:16;;;;;;;5.68;0.10;;;14.80;65.10;;;;;;5010654;28;20407;-87
2021/05/24 07:25:42;;;;;;;0.03;0.03;;;14.90;65.00;;;;;;5009332;28;20038;-86
2021/05/24 07:28:08;;;;;;;0.00;0.00;;;14.90;64.90;;;;;;4959103;28;20057;-87
2021/05/24 07:30:35;;;;;;;6.97;0.10;;;15.10;64.70;;;;;;5010545;28;20031;-87
2021/05/24 07:33:01;;;;;;;0.00;0.00;;;15.50;64.30;;;;;;4973584;28;20027;-88
2021/05/24 07:35:27;;;;;;;0.00;0.00;;;15.90;64.40;;;;;;4989366;28;20031;-87
2021/05/24 07:37:54;;;;;;;0.17;0.00;;;16.30;63.00;;;;;;4989721;28;20030;-87
2021/05/24 07:40:20;;;;;;;0.05;0.00;;;16.60;62.30;;;;;;4973596;28;20027;-88
2021/05/24 07:42:46;;;;;;;0.10;0.00;;;16.80;61.90;;;;;;5002369;28;20094;-85
2021/05/24 07:45:12;;;;;;;1.17;0.00;;;16.80;61.70;;;;;;4975462;28;20054;-87
2021/05/24 07:47:39;;;;;;;0.00;0.00;;;16.80;62.10;;;;;;4982364;28;20023;-86
2021/05/24 07:50:06;;;;;;;3.00;0.30;;;16.60;62.40;;;;;;4976732;28;20043;-87
2021/05/24 07:52:32;;;;;;;0.40;0.20;;;16.40;62.90;;;;;;4974874;28;20042;-88
2021/05/24 07:54:58;;;;;;;1.45;0.10;;;16.10;63.40;;;;;;4960084;28;20043;-88
2021/05/24 07:57:25;;;;;;;6.03;0.22;;;15.90;64.00;;;;;;5010313;28;20027;-88
2021/05/24 07:59:51;;;;;;;4.22;0.30;;;15.70;64.40;;;;;;4993515;28;20038;-88
2021/05/24 08:02:17;;;;;;;0.03;0.00;;;15.50;64.70;;;;;;5004741;28;20042;-87
2021/05/24 08:04:43;;;;;;;0.10;0.00;;;15.50;65.00;;;;;;4973164;28;20038;-88
2021/05/24 08:07:09;;;;;;;1.65;0.32;;;15.40;65.10;;;;;;4973121;28;20091;-88
2021/05/24 08:09:35;;;;;;;0.13;0.03;;;15.50;65.10;;;;;;4974761;28;20035;-87
2021/05/24 08:12:02;;;;;;;0.00;0.00;;;15.70;64.80;;;;;;4974044;28;20385;-88
2021/05/24 08:14:28;;;;;;;0.70;0.13;;;15.90;64.50;;;;;;4973994;28;20031;-86
2021/05/24 08:16:54;;;;;;;1.75;0.13;;;16.00;64.30;;;;;;4982529;28;20053;-88
2021/05/24 08:19:21;;;;;;;0.05;0.03;;;16.10;64.00;;;;;;4974102;28;20031;-86
2021/05/24 08:21:48;;;;;;;0.55;0.10;;;16.30;63.80;;;;;;4961525;28;20050;-87
2021/05/24 08:24:14;;;;;;;0.65;0.10;;;16.40;63.60;;;;;;4976014;28;20078;-88
2021/05/24 08:26:40;;;;;;;0.17;0.03;;;16.60;63.30;;;;;;4977959;28;20050;-88
2021/05/24 08:29:06;;;;;;;0.00;0.00;;;16.70;63.10;;;;;;4977003;28;20060;-88
2021/05/24 08:31:33;;;;;;;6.45;0.20;;;16.90;63.00;;;;;;4971773;28;20046;-86
2021/05/24 08:33:59;;;;;;;2.85;0.13;;;17.00;62.70;;;;;;4956700;28;20050;-86
2021/05/24 08:36:25;;;;;;;0.45;0.25;;;17.20;62.50;;;;;;4973145;28;20030;-87
2021/05/24 08:38:52;;;;;;;0.00;0.00;;;17.50;63.00;;;;;;4972450;28;20038;-87
2021/05/24 08:41:18;;;;;;;1.65;0.45;;;17.70;61.90;;;;;;4988481;28;20472;-87
2021/05/24 08:43:44;;;;;;;1.08;0.25;;;17.80;62.30;;;;;;4956515;28;20051;-88
2021/05/24 08:46:10;;;;;;;0.70;0.00;;;17.90;61.30;;;;;;4977693;28;20058;-88
2021/05/24 08:48:37;;;;;;;1.20;0.10;;;18.10;61.10;;;;;;4994206;28;20034;-88
2021/05/24 08:51:05;;;;;;;3.88;0.40;;;18.20;60.80;;;;;;5010326;28;20038;-88
2021/05/24 08:53:32;;;;;;;1.20;0.25;;;18.30;60.60;;;;;;5008769;28;20495;-87
2021/05/24 08:55:58;;;;;;;2.97;0.60;;;18.30;60.70;;;;;;5008906;28;20030;-85
2021/05/24 08:58:24;;;;;;;3.63;0.17;;;18.30;60.70;;;;;;4973085;28;20051;-87
2021/05/24 09:00:51;;;;;;;0.17;0.13;;;18.20;60.60;;;;;;4974837;28;20039;-86
2021/05/24 09:03:21;;;;;;;1.25;0.05;;;18.10;60.80;;;;;;4987956;28;20042;-87
2021/05/24 09:05:48;;;;;;;0.57;0.13;;;17.80;61.10;;;;;;4972132;28;20031;-87
2021/05/24 09:08:14;;;;;;;0.55;0.08;;;17.50;61.60;;;;;;4972149;28;20042;-85
2021/05/24 09:10:42;;;;;;;0.10;0.00;;;17.20;62.00;;;;;;4973537;28;20735;-87
2021/05/24 09:13:13;;;;;;;8.55;0.57;;;17.00;62.30;;;;;;4972184;28;20030;-87
2021/05/24 09:15:40;;;;;;;0.15;0.00;;;16.80;62.60;;;;;;4987847;28;20037;-87
2021/05/24 09:18:07;;;;;;;1.35;0.05;;;16.70;62.70;;;;;;4971972;28;20054;-86
2021/05/24 09:20:34;;;;;;;0.00;0.00;;;16.60;62.80;;;;;;4973027;28;20035;-86
2021/05/24 09:23:16;;;;;;;0.00;0.00;;;16.50;62.80;;;;;;4973079;28;20043;-86
2021/05/24 09:25:54;;;;;;;0.22;0.05;;;16.30;62.80;;;;;;4971800;28;20039;-86
2021/05/24 09:28:55;;;;;;;0.20;0.10;;;16.20;62.90;;;;;;4957982;28;20492;-86
2021/05/24 09:31:31;;;;;;;3.65;0.13;;;16.00;63.00;;;;;;4939020;28;20031;-86
2021/05/24 09:33:59;;;;;;;0.10;0.00;;;15.90;63.00;;;;;;4952617;28;20050;-87
2021/05/24 09:36:26;;;;;;;1.17;0.20;;;15.80;63.10;;;;;;4939731;28;20113;-86
2021/05/24 09:38:53;;;;;;;0.43;0.00;;;15.80;63.10;;;;;;4954440;28;20042;-86
2021/05/24 09:41:21;;;;;;;0.63;0.10;;;15.70;63.90;;;;;;4958346;28;20042;-88
2021/05/24 09:43:48;;;;;;;0.00;0.00;;;15.80;63.10;;;;;;4935152;29;20047;-86
2021/05/24 09:46:19;;;;;;;0.10;0.10;;;15.80;62.90;;;;;;4938444;28;20035;-86
2021/05/24 09:48:49;;;;;;;0.00;0.00;;;15.90;62.70;;;;;;4954770;28;20505;-87
2021/05/24 09:51:18;;;;;;;0.00;0.00;;;15.90;62.40;;;;;;4943992;28;20061;-86
2021/05/24 09:54:12;;;;;;;0.20;0.10;;;16.00;62.40;;;;;;4966753;28;20038;-86
2021/05/24 09:56:40;;;;;;;0.00;0.00;;;15.90;62.30;;;;;;4938463;28;20054;-87
2021/05/24 09:59:13;;;;;;;0.00;0.00;;;15.90;62.20;;;;;;4938417;28;20038;-87
2021/05/24 10:01:45;;;;;;;0.00;0.00;;;15.90;62.20;;;;;;4953447;28;20038;-87
2021/05/24 10:04:16;;;;;;;1.65;0.13;;;15.80;62.20;;;;;;4939418;28;20091;-85
2021/05/24 10:06:42;;;;;;;0.00;0.00;;;15.70;62.20;;;;;;4972211;28;20378;-86
2021/05/24 10:09:09;;;;;;;0.00;0.00;;;15.60;62.30;;;;;;4971544;28;20039;-86
2021/05/24 10:11:37;;;;;;;0.38;0.10;;;15.60;62.50;;;;;;4987416;28;20022;-86
2021/05/24 10:14:03;;;;;;;4.18;0.20;;;15.50;62.60;;;;;;4989681;28;20035;-87
2021/05/24 10:16:34;;;;;;;0.00;0.00;;;15.40;62.60;;;;;;4982269;28;20031;-87
2021/05/24 10:19:00;;;;;;;2.53;0.00;;;15.40;62.60;;;;;;4962301;28;20392;-87
2021/05/24 10:21:27;;;;;;;0.00;0.00;;;15.30;62.70;;;;;;4995820;28;20476;-85
2021/05/24 10:23:54;;;;;;;0.10;0.00;;;15.30;62.70;;;;;;4976073;28;20496;-86
2021/05/24 10:26:20;;;;;;;0.10;0.00;;;15.20;62.80;;;;;;4973514;28;20034;-87
2021/05/24 10:28:49;;;;;;;1.85;0.08;;;15.20;62.80;;;;;;4977142;28;20063;-87
2021/05/24 10:31:23;;;;;;;0.20;0.00;;;15.20;62.80;;;;;;4974776;28;20035;-88
2021/05/24 10:33:49;;;;;;;0.15;0.15;;;15.20;62.70;;;;;;4987693;28;20457;-87
2021/05/24 10:36:32;;;;;;;0.08;0.00;;;15.20;62.70;;;;;;4974837;28;20046;-87
2021/05/24 10:39:23;;;;;;;0.30;0.10;;;15.20;62.60;;;;;;4990664;28;20030;-87
2021/05/24 10:41:53;;;;;;;0.00;0.00;;;15.40;62.40;;;;;;4990314;28;20373;-87
2021/05/24 10:44:23;;;;;;;0.00;0.00;;;15.70;61.80;;;;;;4975610;28;20046;-87
2021/05/24 10:46:53;;;;;;;0.57;0.00;;;16.10;61.20;;;;;;4984363;28;20043;-88
2021/05/24 10:49:26;;;;;;;0.08;0.05;;;16.50;60.60;;;;;;4959280;28;20474;-87
2021/05/24 10:52:09;;;;;;;0.00;0.00;;;16.80;60.00;;;;;;5003174;28;20034;-87
2021/05/24 10:54:40;;;;;;;2.80;0.10;;;17.20;59.60;;;;;;5011088;28;20373;-87
2021/05/24 10:57:12;;;;;;;0.10;0.00;;;17.40;59.20;;;;;;5011971;28;20035;-87
2021/05/24 10:59:42;;;;;;;0.00;0.00;;;17.70;59.00;;;;;;4994087;28;20034;-87
2021/05/24 11:02:09;;;;;;;3.28;0.00;;;17.90;58.70;;;;;;4974923;28;20035;-87
2021/05/24 11:04:55;;;;;;;0.00;0.00;;;18.00;58.50;;;;;;4957281;28;20054;-87
2021/05/24 11:07:42;;;;;;;2.50;0.10;;;18.00;58.50;;;;;;4960024;28;20039;-87
2021/05/24 11:10:18;;;;;;;0.00;0.00;;;18.20;58.50;;;;;;4972312;28;20049;-87
2021/05/24 11:12:51;;;;;;;0.00;0.00;;;18.30;58.20;;;;;;4975500;28;20415;-87
2021/05/24 11:15:20;;;;;;;1.25;0.10;;;18.50;58.00;;;;;;4989902;28;20035;-87
2021/05/24 11:17:58;;;;;;;0.00;0.00;;;18.70;57.70;;;;;;4975261;28;20034;-87
2021/05/24 11:20:54;;;;;;;0.32;0.15;;;18.90;57.40;;;;;;4975035;28;20041;-87
2021/05/24 11:26:14;;;;;;;0.00;0.00;;;18.80;57.40;;;;;;4975142;28;20042;-87
2021/05/24 11:28:42;;;;;;;0.00;0.00;;;18.80;57.40;;;;;;4975041;28;20111;-87
2021/05/24 11:31:18;;;;;;;1.55;0.10;;;18.80;57.30;;;;;;4963749;28;20131;-87
2021/05/24 11:33:48;;;;;;;0.00;0.00;;;18.80;57.20;;;;;;4979711;28;20042;-88
2021/05/24 11:36:20;;;;;;;0.00;0.00;;;18.80;57.10;;;;;;4977724;28;20035;-87
2021/05/24 11:38:59;;;;;;;0.00;0.00;;;18.80;57.00;;;;;;4977991;28;20030;-87
2021/05/24 11:41:29;;;;;;;0.00;0.00;;;18.90;56.80;;;;;;4977551;28;20380;-88
2021/05/24 11:43:55;;;;;;;0.20;0.03;;;19.00;56.60;;;;;;4978755;28;20038;-87
2021/05/24 11:46:22;;;;;;;0.28;0.05;;;19.00;56.40;;;;;;4973089;28;20043;-87
2021/05/24 11:48:49;;;;;;;0.00;0.00;;;19.10;56.30;;;;;;4974064;28;20492;-87
2021/05/24 11:51:16;;;;;;;0.00;0.00;;;19.00;56.20;;;;;;4973480;28;20023;-88
2021/05/24 11:54:07;;;;;;;0.43;0.10;;;19.00;56.30;;;;;;4974459;28;20503;-87
2021/05/24 11:56:39;;;;;;;0.35;0.13;;;19.00;56.20;;;;;;4973040;28;20480;-88
2021/05/24 11:59:06;;;;;;;0.50;0.20;;;19.10;55.90;;;;;;4974322;28;20035;-87
2021/05/24 12:01:32;;;;;;;0.98;0.10;;;19.20;55.80;;;;;;4964548;28;20069;-88
2021/05/24 12:03:58;;;;;;;0.00;0.00;;;19.30;55.60;;;;;;4975875;28;20388;-88
2021/05/24 12:06:24;;;;;;;0.43;0.20;;;19.50;55.40;;;;;;5010294;28;20031;-88
2021/05/24 12:08:50;;;;;;;3.60;0.55;;;19.40;55.20;;;;;;4973919;28;20047;-88
2021/05/24 12:11:17;;;;;;;0.00;0.00;;;19.30;55.30;;;;;;4984440;28;20039;-88
2021/05/24 12:14:00;;;;;;;0.20;0.08;;;19.10;55.40;;;;;;4976119;28;20029;-88
2021/05/24 12:16:26;;;;;;;0.57;0.25;;;18.70;55.50;;;;;;4959338;28;20515;-88
2021/05/24 12:18:54;;;;;;;0.10;0.05;;;18.40;55.90;;;;;;4973115;28;20027;-86
2021/05/24 12:21:39;;;;;;;0.00;0.00;;;18.10;56.10;;;;;;4989143;28;20468;-88
2021/05/24 12:24:10;;;;;;;0.55;0.00;;;17.90;56.30;;;;;;4988466;28;20060;-88
2021/05/24 12:26:38;;;;;;;0.00;0.00;;;17.70;56.30;;;;;;4972714;28;20030;-87
2021/05/24 12:29:06;;;;;;;0.00;0.00;;;17.50;56.30;;;;;;4956805;28;20054;-87
2021/05/24 12:31:32;;;;;;;0.28;0.00;;;17.40;56.40;;;;;;4964200;28;20031;-86
2021/05/24 12:33:58;;;;;;;0.22;0.05;;;17.20;56.40;;;;;;4975799;28;20031;-88
2021/05/24 12:36:33;;;;;;;9.68;0.22;;;17.10;56.50;;;;;;4993594;28;20041;-88
2021/05/24 12:39:03;;;;;;;1.35;0.52;;;17.20;56.50;;;;;;4991631;28;20027;-87
2021/05/24 12:41:30;;;;;;;0.20;0.00;;;17.50;56.10;;;;;;4977330;28;20492;-87
2021/05/24 12:43:58;;;;;;;0.00;0.00;;;17.70;55.70;;;;;;4992710;28;20050;-88
2021/05/24 12:46:25;;;;;;;0.10;0.03;;;18.00;55.30;;;;;;4973351;28;20058;-87
2021/05/24 12:48:52;;;;;;;2.33;0.10;;;18.20;54.90;;;;;;4972588;28;20388;-85
2021/05/24 12:51:19;;;;;;;5.53;0.00;;;18.40;54.70;;;;;;4953528;28;20070;-87
2021/05/24 12:53:59;;;;;;;6.85;0.00;;;18.50;54.50;;;;;;5000322;28;20050;-87